Terminal Aerodrome Forecast
Issued by NWS

Home | Current Version | Previous Version | Graphics & Text | Print | Product List | Glossary On
Versions: 1 2 3 4 5 6 7 8 9 10 11 12 13 14 15 16 17 18 19
907
FTUS43 KMPX 080342 AAB
TAFAXN
TAF AMD
KAXN 080342Z 0804/0824 32024G35KT 4SM -SN BLSN SCT010 OVC020
      TEMPO 0804/0806 3/4SM -SN BLSN OVC008
     FM080600 33025G35KT 1 1/2SM -SN BLSN OVC015
     FM080900 33025G33KT 3SM -SN BLSN OVC015
     FM081600 34023G32KT P6SM BKN020
     FM082200 33018G28KT P6SM BKN025=

USA.gov is the U.S. government's official web portal to all federal, state and local government web resources and services.